Lummen, Belgium
Current Conditions -  °F | °C
As of 9:25 AM on Tuesday 21 Oct 2014 (Local Time) from EBDT Reporting Station
Light Rain Light Rain  
Wind Chill: 52°   Ceiling: 3000
Heat Index: 52°   Visibility: 2.8mi
Dew Point: 52°   Wind: 13mph
Humidity: 100%   Direction: 200°SSW
Pressure: 29.74"   Gusts: NA
Location:  50.99°N, 5.19°E
Report Text: EBDT 210725Z 20011KT 4500 -RA FEW005 SCT020 BKN030 11/11 Q1007 GRN
Loading
Personal Weather Stations






























Interactive Weather Map
Tropical Storm Tracking
New forecast layout! Learn more

10-Day Weather Forecast

Advertisements
Track Severe Weather on mobile